sensor_id;sensor_type;location;lat;lon;timestamp;pressure;altitude;pressure_sealevel;temperature;humidity
29467;BME280;60968;37.490;-122.288;2022-09-09T00:02:48;97724.25;;;37.07;15.16
29467;BME280;60968;37.490;-122.288;2022-09-09T00:06:14;97718.66;;;36.84;15.67
29467;BME280;60968;37.490;-122.288;2022-09-09T00:09:21;97720.84;;;36.68;15.58
29467;BME280;60968;37.490;-122.288;2022-09-09T00:16:17;97709.38;;;36.41;15.79
29467;BME280;60968;37.490;-122.288;2022-09-09T00:22:44;97715.97;;;36.13;15.37
29467;BME280;60968;37.490;-122.288;2022-09-09T00:32:19;97703.00;;;35.77;15.44
29467;BME280;60968;37.490;-122.288;2022-09-09T00:39:00;97693.16;;;35.50;15.30
29467;BME280;60968;37.490;-122.288;2022-09-09T00:42:20;97695.44;;;35.40;15.97
29467;BME280;60968;37.490;-122.288;2022-09-09T00:58:26;97687.22;;;34.95;17.18
29467;BME280;60968;37.490;-122.288;2022-09-09T01:01:27;97690.34;;;34.85;17.51
29467;BME280;60968;37.490;-122.288;2022-09-09T01:04:33;97690.34;;;34.78;18.13
29467;BME280;60968;37.490;-122.288;2022-09-09T01:07:35;97690.75;;;34.75;17.59
29467;BME280;60968;37.490;-122.288;2022-09-09T01:10:41;97691.38;;;34.70;18.58
29467;BME280;60968;37.490;-122.288;2022-09-09T01:14:24;97688.25;;;34.47;19.37
29467;BME280;60968;37.490;-122.288;2022-09-09T01:17:39;97686.81;;;34.31;19.26
29467;BME280;60968;37.490;-122.288;2022-09-09T01:27:05;97677.13;;;33.88;20.03
29467;BME280;60968;37.490;-122.288;2022-09-09T01:30:16;97685.16;;;33.75;19.95
29467;BME280;60968;37.490;-122.288;2022-09-09T01:33:19;97675.34;;;33.60;20.13
29467;BME280;60968;37.490;-122.288;2022-09-09T01:37:10;97666.78;;;33.50;20.13
29467;BME280;60968;37.490;-122.288;2022-09-09T01:39:46;97675.06;;;33.42;20.27
29467;BME280;60968;37.490;-122.288;2022-09-09T01:42:48;97663.81;;;33.31;20.37
29467;BME280;60968;37.490;-122.288;2022-09-09T01:45:52;97664.34;;;33.20;20.72
29467;BME280;60968;37.490;-122.288;2022-09-09T01:48:55;97659.09;;;33.12;20.55
29467;BME280;60968;37.490;-122.288;2022-09-09T01:52:15;97660.69;;;32.99;20.70
29467;BME280;60968;37.490;-122.288;2022-09-09T01:55:38;97659.97;;;32.84;21.20
29467;BME280;60968;37.490;-122.288;2022-09-09T02:08:23;97647.47;;;32.26;21.77
29467;BME280;60968;37.490;-122.288;2022-09-09T02:11:28;97645.50;;;32.13;21.97
29467;BME280;60968;37.490;-122.288;2022-09-09T02:14:36;97642.47;;;32.02;22.16
29467;BME280;60968;37.490;-122.288;2022-09-09T02:17:41;97644.00;;;31.89;22.31
29467;BME280;60968;37.490;-122.288;2022-09-09T02:20:46;97640.78;;;31.79;22.21
29467;BME280;60968;37.490;-122.288;2022-09-09T02:23:49;97641.34;;;31.74;21.92
29467;BME280;60968;37.490;-122.288;2022-09-09T02:26:53;97646.00;;;31.66;22.20
29467;BME280;60968;37.490;-122.288;2022-09-09T02:29:58;97649.56;;;31.51;22.53
29467;BME280;60968;37.490;-122.288;2022-09-09T02:33:03;97649.03;;;31.41;22.54
29467;BME280;60968;37.490;-122.288;2022-09-09T02:36:08;97646.25;;;31.34;22.26
29467;BME280;60968;37.490;-122.288;2022-09-09T02:39:12;97653.50;;;31.34;22.42
29467;BME280;60968;37.490;-122.288;2022-09-09T02:42:14;97650.13;;;31.32;22.17
29467;BME280;60968;37.490;-122.288;2022-09-09T02:45:22;97656.91;;;31.27;22.47
29467;BME280;60968;37.490;-122.288;2022-09-09T02:48:55;97657.28;;;31.24;22.18
29467;BME280;60968;37.490;-122.288;2022-09-09T02:55:08;97654.97;;;31.21;22.14
29467;BME280;60968;37.490;-122.288;2022-09-09T02:58:15;97654.88;;;31.29;21.99
29467;BME280;60968;37.490;-122.288;2022-09-09T03:01:24;97649.03;;;31.26;21.88
29467;BME280;60968;37.490;-122.288;2022-09-09T03:04:25;97648.56;;;31.22;21.97
29467;BME280;60968;37.490;-122.288;2022-09-09T03:07:26;97642.44;;;31.13;22.28
29467;BME280;60968;37.490;-122.288;2022-09-09T03:10:26;97657.66;;;31.06;22.09
29467;BME280;60968;37.490;-122.288;2022-09-09T03:13:29;97661.91;;;31.01;22.43
29467;BME280;60968;37.490;-122.288;2022-09-09T03:16:30;97668.03;;;30.94;22.59
29467;BME280;60968;37.490;-122.288;2022-09-09T03:19:31;97679.06;;;30.85;22.57
29467;BME280;60968;37.490;-122.288;2022-09-09T03:22:32;97672.25;;;30.74;22.90
29467;BME280;60968;37.490;-122.288;2022-09-09T03:25:33;97675.88;;;30.66;22.74
29467;BME280;60968;37.490;-122.288;2022-09-09T03:28:34;97672.41;;;30.57;22.59
29467;BME280;60968;37.490;-122.288;2022-09-09T03:31:34;97677.06;;;30.64;22.04
29467;BME280;60968;37.490;-122.288;2022-09-09T03:34:37;97668.94;;;30.72;21.98
29467;BME280;60968;37.490;-122.288;2022-09-09T03:37:43;97670.31;;;30.68;21.90
29467;BME280;60968;37.490;-122.288;2022-09-09T03:40:55;97667.63;;;30.68;21.98
29467;BME280;60968;37.490;-122.288;2022-09-09T03:43:56;97670.31;;;30.68;22.00
29467;BME280;60968;37.490;-122.288;2022-09-09T03:46:57;97675.41;;;30.62;21.92
29467;BME280;60968;37.490;-122.288;2022-09-09T03:49:58;97674.75;;;30.60;21.86
29467;BME280;60968;37.490;-122.288;2022-09-09T03:53:01;97679.53;;;30.50;22.13
29467;BME280;60968;37.490;-122.288;2022-09-09T03:56:03;97681.41;;;30.50;22.07
29467;BME280;60968;37.490;-122.288;2022-09-09T03:59:06;97683.59;;;30.46;22.14
29467;BME280;60968;37.490;-122.288;2022-09-09T04:02:07;97687.31;;;30.45;21.88
29467;BME280;60968;37.490;-122.288;2022-09-09T04:05:09;97696.66;;;30.49;21.64
29467;BME280;60968;37.490;-122.288;2022-09-09T04:08:10;97703.94;;;30.40;22.02
29467;BME280;60968;37.490;-122.288;2022-09-09T04:11:11;97701.22;;;30.25;22.53
29467;BME280;60968;37.490;-122.288;2022-09-09T04:14:15;97698.09;;;30.14;22.65
29467;BME280;60968;37.490;-122.288;2022-09-09T04:17:16;97704.06;;;30.01;22.55
29467;BME280;60968;37.490;-122.288;2022-09-09T04:20:17;97701.22;;;29.94;22.73
29467;BME280;60968;37.490;-122.288;2022-09-09T04:23:20;97702.97;;;29.87;22.41
29467;BME280;60968;37.490;-122.288;2022-09-09T04:26:21;97704.16;;;29.76;22.43
29467;BME280;60968;37.490;-122.288;2022-09-09T04:29:24;97701.34;;;29.69;21.90
29467;BME280;60968;37.490;-122.288;2022-09-09T04:32:25;97703.59;;;29.57;21.39
29467;BME280;60968;37.490;-122.288;2022-09-09T04:35:26;97697.75;;;29.54;21.20
29467;BME280;60968;37.490;-122.288;2022-09-09T04:38:27;97702.13;;;29.47;20.81
29467;BME280;60968;37.490;-122.288;2022-09-09T04:41:28;97704.16;;;29.36;20.71
29467;BME280;60968;37.490;-122.288;2022-09-09T04:44:30;97703.69;;;29.33;20.49
29467;BME280;60968;37.490;-122.288;2022-09-09T04:47:33;97707.72;;;29.20;20.72
29467;BME280;60968;37.490;-122.288;2022-09-09T04:50:39;97708.75;;;29.11;20.48
29467;BME280;60968;37.490;-122.288;2022-09-09T04:53:43;97712.47;;;29.02;20.87
29467;BME280;60968;37.490;-122.288;2022-09-09T04:56:44;97713.66;;;28.91;21.10
29467;BME280;60968;37.490;-122.288;2022-09-09T04:59:46;97719.53;;;28.78;21.38
29467;BME280;60968;37.490;-122.288;2022-09-09T05:02:47;97714.84;;;28.72;21.63
29467;BME280;60968;37.490;-122.288;2022-09-09T05:05:47;97708.47;;;28.48;25.96
29467;BME280;60968;37.490;-122.288;2022-09-09T05:08:52;97708.97;;;28.19;27.91
29467;BME280;60968;37.490;-122.288;2022-09-09T05:11:54;97697.34;;;27.94;28.91
29467;BME280;60968;37.490;-122.288;2022-09-09T05:14:57;97693.28;;;27.81;28.11
29467;BME280;60968;37.490;-122.288;2022-09-09T05:17:59;97697.63;;;27.74;26.39
29467;BME280;60968;37.490;-122.288;2022-09-09T05:21:00;97689.97;;;27.79;24.63
29467;BME280;60968;37.490;-122.288;2022-09-09T05:24:01;97688.25;;;27.70;24.53
29467;BME280;60968;37.490;-122.288;2022-09-09T05:27:02;97694.06;;;27.57;24.92
29467;BME280;60968;37.490;-122.288;2022-09-09T05:30:04;97683.13;;;27.42;25.56
29467;BME280;60968;37.490;-122.288;2022-09-09T05:33:06;97687.06;;;27.30;25.92
29467;BME280;60968;37.490;-122.288;2022-09-09T05:36:10;97688.66;;;27.14;25.70
29467;BME280;60968;37.490;-122.288;2022-09-09T05:39:11;97694.16;;;27.13;25.89
29467;BME280;60968;37.490;-122.288;2022-09-09T05:42:13;97692.78;;;27.00;26.20
29467;BME280;60968;37.490;-122.288;2022-09-09T05:45:14;97696.22;;;26.93;26.44
29467;BME280;60968;37.490;-122.288;2022-09-09T05:48:16;97691.53;;;26.86;27.00
29467;BME280;60968;37.490;-122.288;2022-09-09T05:51:25;97687.56;;;26.91;26.61
29467;BME280;60968;37.490;-122.288;2022-09-09T05:54:28;97686.38;;;26.93;26.37
29467;BME280;60968;37.490;-122.288;2022-09-09T05:57:29;97686.19;;;26.86;25.93
29467;BME280;60968;37.490;-122.288;2022-09-09T06:00:29;97687.13;;;26.77;25.88
29467;BME280;60968;37.490;-122.288;2022-09-09T06:03:31;97689.41;;;26.72;25.70
29467;BME280;60968;37.490;-122.288;2022-09-09T06:06:34;97683.00;;;26.65;25.37
29467;BME280;60968;37.490;-122.288;2022-09-09T06:09:35;97690.50;;;26.61;25.40
29467;BME280;60968;37.490;-122.288;2022-09-09T06:12:36;97697.66;;;26.61;25.40
29467;BME280;60968;37.490;-122.288;2022-09-09T06:15:49;97696.81;;;26.60;24.93
29467;BME280;60968;37.490;-122.288;2022-09-09T06:18:52;97701.63;;;26.57;25.22
29467;BME280;60968;37.490;-122.288;2022-09-09T06:21:53;97693.41;;;26.50;25.61
29467;BME280;60968;37.490;-122.288;2022-09-09T06:24:56;97693.19;;;26.43;27.01
29467;BME280;60968;37.490;-122.288;2022-09-09T06:27:58;97690.84;;;26.40;30.82
29467;BME280;60968;37.490;-122.288;2022-09-09T06:31:02;97698.53;;;26.43;34.21
29467;BME280;60968;37.490;-122.288;2022-09-09T06:34:06;97702.88;;;26.44;36.05
29467;BME280;60968;37.490;-122.288;2022-09-09T06:37:11;97704.03;;;26.42;38.52
29467;BME280;60968;37.490;-122.288;2022-09-09T06:40:13;97697.97;;;26.40;38.39
29467;BME280;60968;37.490;-122.288;2022-09-09T06:43:13;97688.59;;;26.35;38.15
29467;BME280;60968;37.490;-122.288;2022-09-09T06:46:17;97683.72;;;26.31;38.29
29467;BME280;60968;37.490;-122.288;2022-09-09T06:49:20;97684.44;;;26.33;38.41
29467;BME280;60968;37.490;-122.288;2022-09-09T06:52:21;97672.31;;;26.39;38.36
29467;BME280;60968;37.490;-122.288;2022-09-09T06:55:23;97667.78;;;26.39;38.34
29467;BME280;60968;37.490;-122.288;2022-09-09T06:58:24;97658.56;;;26.33;38.15
29467;BME280;60968;37.490;-122.288;2022-09-09T07:01:27;97659.03;;;26.29;37.88
29467;BME280;60968;37.490;-122.288;2022-09-09T07:04:28;97656.66;;;26.26;37.07
29467;BME280;60968;37.490;-122.288;2022-09-09T07:07:29;97653.78;;;26.19;37.18
29467;BME280;60968;37.490;-122.288;2022-09-09T07:10:30;97642.56;;;26.15;36.34
29467;BME280;60968;37.490;-122.288;2022-09-09T07:13:31;97630.59;;;26.19;36.07
29467;BME280;60968;37.490;-122.288;2022-09-09T07:16:32;97628.66;;;26.30;36.00
29467;BME280;60968;37.490;-122.288;2022-09-09T07:19:33;97620.19;;;26.34;35.69
29467;BME280;60968;37.490;-122.288;2022-09-09T07:22:35;97619.06;;;26.37;35.28
29467;BME280;60968;37.490;-122.288;2022-09-09T07:25:36;97621.41;;;26.40;35.59
29467;BME280;60968;37.490;-122.288;2022-09-09T07:28:37;97614.88;;;26.34;36.00
29467;BME280;60968;37.490;-122.288;2022-09-09T07:31:39;97624.34;;;26.29;35.96
29467;BME280;60968;37.490;-122.288;2022-09-09T07:34:40;97624.50;;;26.27;35.71
29467;BME280;60968;37.490;-122.288;2022-09-09T07:37:41;97628.06;;;26.18;35.15
29467;BME280;60968;37.490;-122.288;2022-09-09T07:40:46;97612.31;;;26.07;35.81
29467;BME280;60968;37.490;-122.288;2022-09-09T07:43:50;97608.00;;;25.96;36.47
29467;BME280;60968;37.490;-122.288;2022-09-09T07:46:51;97608.72;;;25.98;36.35
29467;BME280;60968;37.490;-122.288;2022-09-09T07:49:52;97603.91;;;26.01;35.95
29467;BME280;60968;37.490;-122.288;2022-09-09T07:52:58;97608.41;;;26.01;34.90
29467;BME280;60968;37.490;-122.288;2022-09-09T07:56:08;97616.03;;;26.14;36.16
29467;BME280;60968;37.490;-122.288;2022-09-09T07:59:10;97610.84;;;26.12;35.88
29467;BME280;60968;37.490;-122.288;2022-09-09T08:02:12;97612.75;;;25.66;37.81
29467;BME280;60968;37.490;-122.288;2022-09-09T08:05:13;97617.00;;;25.03;38.91
29467;BME280;60968;37.490;-122.288;2022-09-09T08:08:14;97601.56;;;24.59;39.61
29467;BME280;60968;37.490;-122.288;2022-09-09T08:11:15;97598.13;;;24.39;38.92
29467;BME280;60968;37.490;-122.288;2022-09-09T08:14:16;97599.69;;;24.32;39.18
29467;BME280;60968;37.490;-122.288;2022-09-09T08:17:17;97598.44;;;24.26;39.01
29467;BME280;60968;37.490;-122.288;2022-09-09T08:20:18;97600.81;;;24.20;39.55
29467;BME280;60968;37.490;-122.288;2022-09-09T08:23:19;97592.28;;;24.16;39.02
29467;BME280;60968;37.490;-122.288;2022-09-09T08:26:22;97587.22;;;23.84;41.18
29467;BME280;60968;37.490;-122.288;2022-09-09T08:29:24;97574.06;;;23.82;39.44
29467;BME280;60968;37.490;-122.288;2022-09-09T08:32:25;97577.63;;;24.02;38.53
29467;BME280;60968;37.490;-122.288;2022-09-09T08:35:32;97570.44;;;24.22;38.31
29467;BME280;60968;37.490;-122.288;2022-09-09T08:38:34;97580.66;;;23.78;43.10
29467;BME280;60968;37.490;-122.288;2022-09-09T08:41:57;97575.44;;;23.27;44.56
29467;BME280;60968;37.490;-122.288;2022-09-09T08:45:44;97568.72;;;23.14;42.85
29467;BME280;60968;37.490;-122.288;2022-09-09T08:51:53;97572.28;;;23.53;38.78
29467;BME280;60968;37.490;-122.288;2022-09-09T08:55:26;97576.84;;;22.91;49.71
29467;BME280;60968;37.490;-122.288;2022-09-09T08:58:31;97572.88;;;22.44;51.61
29467;BME280;60968;37.490;-122.288;2022-09-09T09:01:43;97568.28;;;22.04;54.40
29467;BME280;60968;37.490;-122.288;2022-09-09T09:04:58;97563.94;;;22.03;52.97
29467;BME280;60968;37.490;-122.288;2022-09-09T09:08:20;97564.91;;;22.23;50.88
29467;BME280;60968;37.490;-122.288;2022-09-09T09:11:33;97550.84;;;22.33;51.95
29467;BME280;60968;37.490;-122.288;2022-09-09T09:14:35;97554.56;;;22.41;52.72
29467;BME280;60968;37.490;-122.288;2022-09-09T09:17:39;97552.91;;;22.40;53.74
29467;BME280;60968;37.490;-122.288;2022-09-09T09:20:52;97539.75;;;22.39;54.52
29467;BME280;60968;37.490;-122.288;2022-09-09T09:23:59;97536.25;;;22.38;54.56
29467;BME280;60968;37.490;-122.288;2022-09-09T09:27:11;97527.47;;;22.38;54.26
29467;BME280;60968;37.490;-122.288;2022-09-09T09:30:20;97521.75;;;22.42;52.00
29467;BME280;60968;37.490;-122.288;2022-09-09T09:33:44;97534.28;;;22.61;51.79
29467;BME280;60968;37.490;-122.288;2022-09-09T09:36:56;97537.84;;;22.51;54.48
29467;BME280;60968;37.490;-122.288;2022-09-09T09:40:16;97537.00;;;22.29;56.69
29467;BME280;60968;37.490;-122.288;2022-09-09T09:43:24;97529.81;;;21.89;58.85
29467;BME280;60968;37.490;-122.288;2022-09-09T09:46:25;97530.63;;;21.68;59.66
29467;BME280;60968;37.490;-122.288;2022-09-09T09:49:26;97523.94;;;21.53;60.23
29467;BME280;60968;37.490;-122.288;2022-09-09T09:52:29;97516.28;;;21.71;54.51
29467;BME280;60968;37.490;-122.288;2022-09-09T09:55:33;97510.63;;;22.06;51.12
29467;BME280;60968;37.490;-122.288;2022-09-09T09:58:51;97513.63;;;22.34;47.92
29467;BME280;60968;37.490;-122.288;2022-09-09T10:01:52;97501.41;;;22.53;47.00
29467;BME280;60968;37.490;-122.288;2022-09-09T10:05:13;97494.06;;;22.66;46.25
29467;BME280;60968;37.490;-122.288;2022-09-09T10:08:16;97492.53;;;22.73;46.40
29467;BME280;60968;37.490;-122.288;2022-09-09T10:17:54;97484.34;;;22.96;45.66
29467;BME280;60968;37.490;-122.288;2022-09-09T10:21:13;97485.97;;;22.77;46.87
29467;BME280;60968;37.490;-122.288;2022-09-09T10:38:25;97473.75;;;21.40;60.69
29467;BME280;60968;37.490;-122.288;2022-09-09T10:54:39;97459.97;;;22.31;44.69
29467;BME280;60968;37.490;-122.288;2022-09-09T10:57:48;97462.72;;;22.29;45.89
29467;BME280;60968;37.490;-122.288;2022-09-09T11:00:57;97466.91;;;22.01;54.04
29467;BME280;60968;37.490;-122.288;2022-09-09T11:04:10;97464.44;;;21.57;59.11
29467;BME280;60968;37.490;-122.288;2022-09-09T11:07:40;97457.81;;;21.19;61.54
29467;BME280;60968;37.490;-122.288;2022-09-09T11:16:56;97460.31;;;20.99;62.75
29467;BME280;60968;37.490;-122.288;2022-09-09T11:19:58;97447.44;;;20.95;63.48
29467;BME280;60968;37.490;-122.288;2022-09-09T11:23:11;97437.50;;;20.76;64.85
29467;BME280;60968;37.490;-122.288;2022-09-09T11:26:18;97424.78;;;20.58;56.92
29467;BME280;60968;37.490;-122.288;2022-09-09T11:36:36;97424.94;;;21.00;58.64
29467;BME280;60968;37.490;-122.288;2022-09-09T11:46:46;97437.66;;;20.51;64.51
29467;BME280;60968;37.490;-122.288;2022-09-09T11:49:50;97440.91;;;20.44;64.57
29467;BME280;60968;37.490;-122.288;2022-09-09T11:53:25;97435.63;;;20.32;62.40
29467;BME280;60968;37.490;-122.288;2022-09-09T11:56:33;97438.28;;;20.21;63.05
29467;BME280;60968;37.490;-122.288;2022-09-09T11:59:38;97433.22;;;20.07;65.04
29467;BME280;60968;37.490;-122.288;2022-09-09T12:02:48;97429.88;;;19.93;69.35
29467;BME280;60968;37.490;-122.288;2022-09-09T12:05:50;97424.03;;;19.77;70.90
29467;BME280;60968;37.490;-122.288;2022-09-09T12:08:56;97424.97;;;19.53;73.42
29467;BME280;60968;37.490;-122.288;2022-09-09T12:18:31;97412.44;;;19.32;71.33
29467;BME280;60968;37.490;-122.288;2022-09-09T12:21:48;97415.47;;;19.50;68.54
29467;BME280;60968;37.490;-122.288;2022-09-09T12:28:49;97415.28;;;19.76;62.85
29467;BME280;60968;37.490;-122.288;2022-09-09T12:32:11;97413.16;;;20.04;60.89
29467;BME280;60968;37.490;-122.288;2022-09-09T12:35:26;97403.91;;;20.10;60.58
29467;BME280;60968;37.490;-122.288;2022-09-09T12:38:39;97402.34;;;20.07;57.22
29467;BME280;60968;37.490;-122.288;2022-09-09T12:41:41;97404.25;;;20.05;56.33
29467;BME280;60968;37.490;-122.288;2022-09-09T12:44:55;97404.50;;;20.02;55.92
29467;BME280;60968;37.490;-122.288;2022-09-09T12:50:59;97403.19;;;19.96;53.81
29467;BME280;60968;37.490;-122.288;2022-09-09T12:54:00;97394.19;;;19.99;52.24
29467;BME280;60968;37.490;-122.288;2022-09-09T12:57:02;97393.31;;;19.98;49.18
29467;BME280;60968;37.490;-122.288;2022-09-09T13:00:12;97396.22;;;19.95;48.91
29467;BME280;60968;37.490;-122.288;2022-09-09T13:03:19;97394.19;;;19.99;47.78
29467;BME280;60968;37.490;-122.288;2022-09-09T13:06:27;97385.88;;;20.03;44.27
29467;BME280;60968;37.490;-122.288;2022-09-09T13:09:28;97389.97;;;20.08;44.00
29467;BME280;60968;37.490;-122.288;2022-09-09T13:12:29;97390.47;;;20.13;45.67
29467;BME280;60968;37.490;-122.288;2022-09-09T13:15:30;97388.41;;;20.16;47.58
29467;BME280;60968;37.490;-122.288;2022-09-09T13:18:34;97375.91;;;20.18;46.79
29467;BME280;60968;37.490;-122.288;2022-09-09T13:21:39;97373.50;;;20.27;43.05
29467;BME280;60968;37.490;-122.288;2022-09-09T13:24:40;97373.56;;;20.36;41.58
29467;BME280;60968;37.490;-122.288;2022-09-09T13:27:53;97366.47;;;20.48;42.18
29467;BME280;60968;37.490;-122.288;2022-09-09T13:31:00;97370.69;;;20.51;44.11
29467;BME280;60968;37.490;-122.288;2022-09-09T13:34:22;97378.88;;;20.48;46.04
29467;BME280;60968;37.490;-122.288;2022-09-09T13:37:37;97383.44;;;20.46;47.67
29467;BME280;60968;37.490;-122.288;2022-09-09T13:40:38;97378.78;;;20.38;49.48
29467;BME280;60968;37.490;-122.288;2022-09-09T13:43:44;97379.13;;;20.22;54.96
29467;BME280;60968;37.490;-122.288;2022-09-09T13:46:45;97386.50;;;20.07;56.64
29467;BME280;60968;37.490;-122.288;2022-09-09T13:49:47;97394.31;;;19.86;61.74
29467;BME280;60968;37.490;-122.288;2022-09-09T13:52:49;97401.31;;;19.51;64.74
29467;BME280;60968;37.490;-122.288;2022-09-09T13:55:50;97400.72;;;19.12;68.90
29467;BME280;60968;37.490;-122.288;2022-09-09T13:58:52;97406.78;;;18.77;73.25
29467;BME280;60968;37.490;-122.288;2022-09-09T14:01:54;97403.75;;;18.71;74.67
29467;BME280;60968;37.490;-122.288;2022-09-09T14:04:56;97409.28;;;18.79;75.17
29467;BME280;60968;37.490;-122.288;2022-09-09T14:07:57;97405.19;;;18.88;74.97
29467;BME280;60968;37.490;-122.288;2022-09-09T14:11:00;97421.41;;;18.94;74.81
29467;BME280;60968;37.490;-122.288;2022-09-09T14:14:00;97420.22;;;18.98;74.45
29467;BME280;60968;37.490;-122.288;2022-09-09T14:17:04;97422.38;;;18.93;73.91
29467;BME280;60968;37.490;-122.288;2022-09-09T14:20:07;97416.38;;;18.78;74.80
29467;BME280;60968;37.490;-122.288;2022-09-09T14:23:10;97421.19;;;18.84;75.13
29467;BME280;60968;37.490;-122.288;2022-09-09T14:26:14;97417.44;;;18.76;75.47
29467;BME280;60968;37.490;-122.288;2022-09-09T14:29:18;97434.44;;;18.72;75.85
29467;BME280;60968;37.490;-122.288;2022-09-09T14:32:22;97422.56;;;18.90;75.01
29467;BME280;60968;37.490;-122.288;2022-09-09T14:35:23;97424.38;;;18.90;75.55
29467;BME280;60968;37.490;-122.288;2022-09-09T14:38:24;97435.44;;;18.95;75.49
29467;BME280;60968;37.490;-122.288;2022-09-09T14:41:25;97433.81;;;19.05;75.27
29467;BME280;60968;37.490;-122.288;2022-09-09T14:44:26;97445.03;;;19.20;74.48
29467;BME280;60968;37.490;-122.288;2022-09-09T14:47:28;97440.44;;;19.46;72.91
29467;BME280;60968;37.490;-122.288;2022-09-09T14:50:31;97433.16;;;19.73;69.90
29467;BME280;60968;37.490;-122.288;2022-09-09T14:53:31;97433.47;;;20.03;68.56
29467;BME280;60968;37.490;-122.288;2022-09-09T14:56:34;97440.78;;;20.56;66.22
29467;BME280;60968;37.490;-122.288;2022-09-09T14:59:35;97448.13;;;21.62;61.71
29467;BME280;60968;37.490;-122.288;2022-09-09T15:02:36;97441.56;;;23.77;52.45
29467;BME280;60968;37.490;-122.288;2022-09-09T15:05:37;97434.38;;;25.27;48.44
29467;BME280;60968;37.490;-122.288;2022-09-09T15:08:41;97438.03;;;26.06;46.58
29467;BME280;60968;37.490;-122.288;2022-09-09T15:11:43;97439.44;;;27.45;43.02
29467;BME280;60968;37.490;-122.288;2022-09-09T15:14:50;97444.44;;;28.54;40.62
29467;BME280;60968;37.490;-122.288;2022-09-09T15:17:51;97446.31;;;28.85;39.73
29467;BME280;60968;37.490;-122.288;2022-09-09T15:20:52;97448.97;;;29.16;39.57
29467;BME280;60968;37.490;-122.288;2022-09-09T15:23:54;97436.03;;;29.66;38.57
29467;BME280;60968;37.490;-122.288;2022-09-09T15:26:55;97437.78;;;30.12;37.19
29467;BME280;60968;37.490;-122.288;2022-09-09T15:29:56;97434.16;;;30.35;36.22
29467;BME280;60968;37.490;-122.288;2022-09-09T15:32:56;97431.34;;;30.73;36.01
29467;BME280;60968;37.490;-122.288;2022-09-09T15:35:57;97432.31;;;30.65;35.36
29467;BME280;60968;37.490;-122.288;2022-09-09T15:38:59;97440.94;;;29.39;37.79
29467;BME280;60968;37.490;-122.288;2022-09-09T15:42:01;97431.09;;;27.48;41.87
29467;BME280;60968;37.490;-122.288;2022-09-09T15:45:03;97435.16;;;25.81;45.82
29467;BME280;60968;37.490;-122.288;2022-09-09T15:48:10;97433.06;;;24.95;48.00
29467;BME280;60968;37.490;-122.288;2022-09-09T15:51:11;97433.31;;;25.02;48.37
29467;BME280;60968;37.490;-122.288;2022-09-09T15:54:17;97430.78;;;25.00;49.07
29467;BME280;60968;37.490;-122.288;2022-09-09T15:57:19;97426.03;;;24.48;50.55
29467;BME280;60968;37.490;-122.288;2022-09-09T16:00:21;97423.06;;;23.95;52.01
29467;BME280;60968;37.490;-122.288;2022-09-09T16:03:22;97423.75;;;23.97;52.75
29467;BME280;60968;37.490;-122.288;2022-09-09T16:06:36;97420.09;;;23.98;52.06
29467;BME280;60968;37.490;-122.288;2022-09-09T16:09:39;97413.81;;;24.00;53.27
29467;BME280;60968;37.490;-122.288;2022-09-09T16:12:40;97424.28;;;24.11;52.63
29467;BME280;60968;37.490;-122.288;2022-09-09T16:15:41;97424.19;;;24.30;52.67
29467;BME280;60968;37.490;-122.288;2022-09-09T16:18:46;97426.59;;;24.61;51.46
29467;BME280;60968;37.490;-122.288;2022-09-09T16:21:48;97419.34;;;24.72;51.43
29467;BME280;60968;37.490;-122.288;2022-09-09T16:24:50;97424.63;;;24.99;50.79
29467;BME280;60968;37.490;-122.288;2022-09-09T16:27:53;97420.81;;;25.20;50.86
29467;BME280;60968;37.490;-122.288;2022-09-09T16:30:54;97425.00;;;25.59;50.04
29467;BME280;60968;37.490;-122.288;2022-09-09T16:33:55;97417.25;;;25.47;50.12
29467;BME280;60968;37.490;-122.288;2022-09-09T16:36:56;97415.63;;;25.55;50.21
29467;BME280;60968;37.490;-122.288;2022-09-09T16:39:57;97413.22;;;25.43;50.29
29467;BME280;60968;37.490;-122.288;2022-09-09T16:42:58;97416.41;;;25.11;51.40
29467;BME280;60968;37.490;-122.288;2022-09-09T16:45:58;97416.78;;;25.52;50.26
29467;BME280;60968;37.490;-122.288;2022-09-09T16:49:01;97414.94;;;25.52;50.20
29467;BME280;60968;37.490;-122.288;2022-09-09T16:52:04;97418.94;;;25.75;49.69
29467;BME280;60968;37.490;-122.288;2022-09-09T16:55:08;97414.81;;;25.54;50.22
29467;BME280;60968;37.490;-122.288;2022-09-09T16:58:10;97424.03;;;25.68;50.04
29467;BME280;60968;37.490;-122.288;2022-09-09T17:01:11;97418.16;;;26.09;48.56
29467;BME280;60968;37.490;-122.288;2022-09-09T17:04:17;97418.97;;;26.78;47.36
29467;BME280;60968;37.490;-122.288;2022-09-09T17:07:18;97411.56;;;28.29;43.95
29467;BME280;60968;37.490;-122.288;2022-09-09T17:10:21;97421.34;;;31.96;36.26
29467;BME280;60968;37.490;-122.288;2022-09-09T17:13:23;97422.59;;;33.93;32.52
29467;BME280;60968;37.490;-122.288;2022-09-09T17:16:27;97421.84;;;35.35;30.48
29467;BME280;60968;37.490;-122.288;2022-09-09T17:19:28;97420.72;;;35.43;29.57
29467;BME280;60968;37.490;-122.288;2022-09-09T17:22:29;97425.38;;;35.35;28.46
29467;BME280;60968;37.490;-122.288;2022-09-09T17:25:30;97416.47;;;35.21;28.96
29467;BME280;60968;37.490;-122.288;2022-09-09T17:28:31;97415.81;;;36.83;27.50
29467;BME280;60968;37.490;-122.288;2022-09-09T17:31:32;97417.22;;;35.67;28.51
29467;BME280;60968;37.490;-122.288;2022-09-09T17:34:34;97415.28;;;37.35;26.56
29467;BME280;60968;37.490;-122.288;2022-09-09T17:37:35;97417.69;;;36.82;27.36
29467;BME280;60968;37.490;-122.288;2022-09-09T17:40:36;97423.41;;;36.55;27.56
29467;BME280;60968;37.490;-122.288;2022-09-09T17:43:37;97428.59;;;36.94;27.17